Time;durP1;ratioP1;P1;durP2;ratioP2;P2;SDS_P1;SDS_P2;PMS_P1;PMS_P2;Temp;Humidity;BMP_temperature;BMP_pressure;BME280_temperature;BME280_humidity;BME280_pressure;Samples;Min_cycle;Max_cycle;Signal;HPM_P1;HPM_P2
2021/05/14 00:01:51;;;;;;;8.20;6.93;;;10.70;99.90;;;;;;5070325;28;20651;-61
2021/05/14 00:04:19;;;;;;;8.37;7.10;;;10.70;99.90;;;;;;5068781;28;20516;-62
2021/05/14 00:06:48;;;;;;;8.53;6.80;;;10.80;99.90;;;;;;5067984;28;20185;-62
2021/05/14 00:09:14;;;;;;;9.30;6.43;;;10.70;99.90;;;;;;5073577;28;20828;-62
2021/05/14 00:11:40;;;;;;;8.33;6.40;;;10.70;99.90;;;;;;5078210;28;20423;-62
2021/05/14 00:14:06;;;;;;;8.60;6.07;;;10.70;99.90;;;;;;5070686;28;20439;-62
2021/05/14 00:16:32;;;;;;;7.93;6.27;;;10.70;99.90;;;;;;5072222;28;20470;-62
2021/05/14 00:18:59;;;;;;;7.13;6.20;;;10.70;99.90;;;;;;5070882;28;20636;-62
2021/05/14 00:21:27;;;;;;;7.37;5.97;;;10.70;99.90;;;;;;5066216;28;20185;-63
2021/05/14 00:23:53;;;;;;;7.13;6.00;;;10.80;99.90;;;;;;5076048;28;20889;-64
2021/05/14 00:26:19;;;;;;;6.53;5.93;;;10.70;99.90;;;;;;5066771;28;20546;-64
2021/05/14 00:28:44;;;;;;;8.63;5.80;;;10.60;99.90;;;;;;5068277;28;20236;-65
2021/05/14 00:31:10;;;;;;;7.40;5.90;;;10.60;99.90;;;;;;5078299;28;20194;-64
2021/05/14 00:33:36;;;;;;;7.63;5.97;;;10.60;99.90;;;;;;5071924;28;20619;-64
2021/05/14 00:36:01;;;;;;;7.43;5.90;;;10.60;99.90;;;;;;5075774;28;20586;-64
2021/05/14 00:38:27;;;;;;;7.93;5.50;;;10.70;99.90;;;;;;5068269;28;20185;-63
2021/05/14 00:40:52;;;;;;;6.73;6.03;;;10.70;99.90;;;;;;5066630;28;20196;-64
2021/05/14 00:43:18;;;;;;;7.20;6.30;;;10.70;99.90;;;;;;5066690;28;20190;-63
2021/05/14 00:45:44;;;;;;;6.40;5.70;;;10.70;99.90;;;;;;5069080;28;20219;-63
2021/05/14 00:48:09;;;;;;;6.93;6.23;;;10.70;99.90;;;;;;5072593;28;20224;-63
2021/05/14 00:50:35;;;;;;;6.80;6.10;;;10.70;99.90;;;;;;5076082;28;20184;-64
2021/05/14 00:53:00;;;;;;;7.27;6.40;;;10.70;99.90;;;;;;5073874;28;20185;-63
2021/05/14 00:55:26;;;;;;;7.57;6.23;;;10.70;99.90;;;;;;5074142;28;20185;-63
2021/05/14 00:57:51;;;;;;;8.63;6.67;;;10.70;99.90;;;;;;5071217;28;20215;-63
2021/05/14 01:00:17;;;;;;;11.10;7.03;;;10.60;99.90;;;;;;5075647;28;20260;-64
2021/05/14 01:02:43;;;;;;;8.57;6.23;;;10.70;99.90;;;;;;5063114;28;20184;-63
2021/05/14 01:05:09;;;;;;;7.63;6.50;;;10.70;99.90;;;;;;5077150;28;20463;-64
2021/05/14 01:07:34;;;;;;;8.97;7.50;;;10.70;99.90;;;;;;5067454;28;20224;-64
2021/05/14 01:10:00;;;;;;;9.37;7.00;;;10.70;99.90;;;;;;5065241;28;20922;-64
2021/05/14 01:12:26;;;;;;;7.70;6.87;;;10.70;99.90;;;;;;5063041;28;20181;-63
2021/05/14 01:14:51;;;;;;;8.70;7.47;;;10.70;99.90;;;;;;5067933;28;20181;-64
2021/05/14 01:17:17;;;;;;;7.07;6.37;;;10.70;99.90;;;;;;5066380;28;20265;-63
2021/05/14 01:19:42;;;;;;;9.10;6.43;;;10.60;99.90;;;;;;5076511;28;20259;-64
2021/05/14 01:22:08;;;;;;;8.33;7.50;;;10.70;99.90;;;;;;5085248;28;20903;-63
2021/05/14 01:24:34;;;;;;;7.33;6.53;;;10.60;99.90;;;;;;5064706;28;20230;-64
2021/05/14 01:27:00;;;;;;;7.43;6.53;;;10.60;99.90;;;;;;5068599;28;20184;-63
2021/05/14 01:29:26;;;;;;;7.77;6.63;;;10.60;99.90;;;;;;5075882;28;20983;-64
2021/05/14 01:31:51;;;;;;;6.87;6.17;;;10.60;99.90;;;;;;5078209;28;20439;-64
2021/05/14 01:34:17;;;;;;;7.10;6.40;;;10.60;99.90;;;;;;5076672;28;20181;-64
2021/05/14 01:36:42;;;;;;;6.97;6.27;;;10.60;99.90;;;;;;5073101;28;20246;-64
2021/05/14 01:39:13;;;;;;;8.20;6.90;;;10.60;99.90;;;;;;5067197;28;20189;-63
2021/05/14 01:41:40;;;;;;;6.50;5.60;;;10.50;99.90;;;;;;5068666;28;20177;-63
2021/05/14 01:44:06;;;;;;;6.93;6.20;;;10.60;99.90;;;;;;5062575;28;20463;-62
2021/05/14 01:46:33;;;;;;;7.30;5.67;;;10.60;99.90;;;;;;5052834;28;20504;-64
2021/05/14 01:48:58;;;;;;;8.00;7.20;;;10.60;99.90;;;;;;5062400;28;20937;-63
2021/05/14 01:51:24;;;;;;;8.73;6.50;;;10.60;99.90;;;;;;5070120;28;20450;-63
2021/05/14 01:53:51;;;;;;;7.67;6.40;;;10.60;99.90;;;;;;5071467;28;20206;-63
2021/05/14 01:56:17;;;;;;;6.07;5.47;;;10.60;99.90;;;;;;5070773;28;20648;-63
2021/05/14 01:58:44;;;;;;;8.00;6.10;;;10.60;99.90;;;;;;5070745;28;20541;-62
2021/05/14 02:01:10;;;;;;;5.90;5.13;;;10.50;99.90;;;;;;5077699;28;20478;-64
2021/05/14 02:03:36;;;;;;;6.70;5.50;;;10.60;99.90;;;;;;5082826;28;20447;-63
2021/05/14 02:06:02;;;;;;;5.27;4.77;;;10.50;99.90;;;;;;5073153;28;20353;-63
2021/05/14 02:08:27;;;;;;;8.00;6.20;;;10.60;99.90;;;;;;5076416;28;20509;-63
2021/05/14 02:10:54;;;;;;;6.60;5.13;;;10.60;99.90;;;;;;5068649;28;20435;-63
2021/05/14 02:13:19;;;;;;;7.20;6.30;;;10.50;99.90;;;;;;5075016;28;20519;-63
2021/05/14 02:15:45;;;;;;;6.50;5.90;;;10.50;99.90;;;;;;5074991;28;20419;-64
2021/05/14 02:18:10;;;;;;;5.70;4.90;;;10.60;99.90;;;;;;5070206;28;20181;-63
2021/05/14 02:20:36;;;;;;;6.53;5.43;;;10.60;99.90;;;;;;5060831;28;20338;-63
2021/05/14 02:23:02;;;;;;;6.50;5.03;;;10.50;99.90;;;;;;5075088;28;20212;-64
2021/05/14 02:25:27;;;;;;;6.60;5.13;;;10.60;99.90;;;;;;5070293;28;20196;-64
2021/05/14 02:27:53;;;;;;;7.20;5.87;;;10.60;99.90;;;;;;5080446;28;21027;-62
2021/05/14 02:30:20;;;;;;;7.00;5.63;;;10.50;99.90;;;;;;5078190;28;20209;-64
2021/05/14 02:32:46;;;;;;;6.30;5.60;;;10.60;99.90;;;;;;5091205;28;20191;-64
2021/05/14 02:35:13;;;;;;;5.97;5.37;;;10.50;99.90;;;;;;5078954;28;20454;-63
2021/05/14 02:37:39;;;;;;;7.17;6.50;;;10.50;99.90;;;;;;5070113;28;20443;-64
2021/05/14 02:40:05;;;;;;;8.00;6.30;;;10.50;99.90;;;;;;5068028;28;21067;-64
2021/05/14 02:42:30;;;;;;;8.30;5.60;;;10.50;99.90;;;;;;5080732;28;20188;-64
2021/05/14 02:44:56;;;;;;;6.40;5.50;;;10.50;99.90;;;;;;5079719;28;20462;-63
2021/05/14 02:47:22;;;;;;;6.90;5.87;;;10.50;99.90;;;;;;5072293;28;20193;-64
2021/05/14 02:49:47;;;;;;;7.40;6.07;;;10.50;99.90;;;;;;5071331;28;20221;-63
2021/05/14 02:52:13;;;;;;;7.10;6.30;;;10.50;99.90;;;;;;5063559;28;20216;-63
2021/05/14 02:54:38;;;;;;;7.43;5.90;;;10.50;99.90;;;;;;5068488;28;20566;-63
2021/05/14 02:57:05;;;;;;;7.20;5.93;;;10.40;99.90;;;;;;5070034;28;20200;-64
2021/05/14 02:59:32;;;;;;;6.93;5.60;;;10.40;99.90;;;;;;5069573;28;20792;-64
2021/05/14 03:01:58;;;;;;;7.63;5.80;;;10.40;99.90;;;;;;5070110;28;20479;-64
2021/05/14 03:04:24;;;;;;;8.83;6.50;;;10.40;99.90;;;;;;5067462;28;20443;-63
2021/05/14 03:06:50;;;;;;;7.20;6.50;;;10.40;99.90;;;;;;5083616;28;20608;-63
2021/05/14 03:09:16;;;;;;;7.50;6.10;;;10.40;99.90;;;;;;5069009;28;20562;-63
2021/05/14 03:11:41;;;;;;;7.17;6.20;;;10.40;99.90;;;;;;5073334;28;20467;-63
2021/05/14 03:14:07;;;;;;;7.03;6.33;;;10.40;99.90;;;;;;5068511;28;20248;-63
2021/05/14 03:16:34;;;;;;;8.77;6.23;;;10.30;99.90;;;;;;5070290;28;20189;-63
2021/05/14 03:18:59;;;;;;;8.37;6.87;;;10.30;99.90;;;;;;5069215;28;20185;-61
2021/05/14 03:21:25;;;;;;;7.93;7.07;;;10.30;99.90;;;;;;5070501;28;20443;-63
2021/05/14 03:23:51;;;;;;;7.20;6.40;;;10.30;99.90;;;;;;5072187;28;20500;-63
2021/05/14 03:26:16;;;;;;;7.73;6.50;;;10.30;99.90;;;;;;5064967;28;20178;-63
2021/05/14 03:28:42;;;;;;;8.77;6.43;;;10.30;99.90;;;;;;5072408;28;20236;-63
2021/05/14 03:31:07;;;;;;;9.33;7.50;;;10.40;99.90;;;;;;5084563;28;20777;-64
2021/05/14 03:33:33;;;;;;;9.17;7.40;;;10.40;99.90;;;;;;5067150;28;20173;-64
2021/05/14 03:35:58;;;;;;;9.60;7.37;;;10.40;99.90;;;;;;5068828;28;21067;-63
2021/05/14 03:38:32;;;;;;;8.87;6.47;;;10.40;99.90;;;;;;5060850;28;20189;-61
2021/05/14 03:40:57;;;;;;;9.20;7.30;;;10.40;99.90;;;;;;5061254;28;20184;-63
2021/05/14 03:43:23;;;;;;;10.80;8.30;;;10.40;99.90;;;;;;5068510;28;20952;-63
2021/05/14 03:45:49;;;;;;;9.30;7.87;;;10.40;99.90;;;;;;5071075;28;20189;-63
2021/05/14 03:48:18;;;;;;;8.10;7.30;;;10.40;99.90;;;;;;5074110;28;20204;-64
2021/05/14 03:50:45;;;;;;;11.27;8.57;;;10.40;99.90;;;;;;5072669;28;20248;-64
2021/05/14 03:53:11;;;;;;;10.33;7.87;;;10.40;99.90;;;;;;5071762;28;20411;-64
2021/05/14 03:55:37;;;;;;;9.33;7.93;;;10.40;99.90;;;;;;5073213;28;20810;-66
2021/05/14 03:58:03;;;;;;;11.80;8.20;;;10.40;99.90;;;;;;5072215;28;20275;-63
2021/05/14 04:00:29;;;;;;;8.97;7.70;;;10.40;99.90;;;;;;5076459;28;20470;-64
2021/05/14 04:02:55;;;;;;;11.87;9.20;;;10.50;99.90;;;;;;5084178;28;20180;-64
2021/05/14 04:05:21;;;;;;;10.40;8.77;;;10.50;99.90;;;;;;5070194;28;20905;-63
2021/05/14 04:07:49;;;;;;;10.40;9.10;;;10.50;99.90;;;;;;5074316;28;20459;-63
2021/05/14 04:15:38;;;;;;;15.73;9.50;;;10.50;99.90;;;;;;5074184;28;20484;-63
2021/05/14 04:18:04;;;;;;;11.77;9.40;;;10.60;99.90;;;;;;5067673;28;20427;-64
2021/05/14 04:20:29;;;;;;;12.23;9.47;;;10.60;99.90;;;;;;5072539;28;20191;-66
2021/05/14 04:22:55;;;;;;;11.33;9.10;;;10.60;99.90;;;;;;5070954;28;20623;-66
2021/05/14 04:25:20;;;;;;;12.30;8.90;;;10.60;99.90;;;;;;5071758;28;20308;-63
2021/05/14 04:27:46;;;;;;;12.30;9.90;;;10.60;99.90;;;;;;5072250;28;21072;-65
2021/05/14 04:30:12;;;;;;;10.73;8.90;;;10.70;99.90;;;;;;5072388;28;20190;-63
2021/05/14 04:32:38;;;;;;;12.17;8.97;;;10.70;99.90;;;;;;5072823;28;20181;-62
2021/05/14 04:35:04;;;;;;;14.43;10.13;;;10.80;99.90;;;;;;5066153;28;20892;-65
2021/05/14 04:37:29;;;;;;;11.73;9.17;;;10.80;99.90;;;;;;5071365;28;20184;-67
2021/05/14 04:39:55;;;;;;;10.30;8.50;;;10.80;99.90;;;;;;5069879;28;20415;-64
2021/05/14 04:42:20;;;;;;;10.70;8.60;;;10.80;99.90;;;;;;5069095;28;20260;-67
2021/05/14 04:44:46;;;;;;;12.37;10.13;;;10.80;99.90;;;;;;5068955;28;20200;-65
2021/05/14 04:47:11;;;;;;;15.37;10.10;;;10.90;99.90;;;;;;5072702;28;20189;-66
2021/05/14 04:49:37;;;;;;;11.80;10.10;;;10.90;99.90;;;;;;5068779;28;20209;-68
2021/05/14 04:52:26;;;;;;;12.83;10.50;;;10.90;99.90;;;;;;5072317;28;20355;-64
2021/05/14 04:54:51;;;;;;;14.27;10.23;;;10.90;99.90;;;;;;5070372;28;20272;-67
2021/05/14 04:57:17;;;;;;;12.60;10.50;;;10.90;99.90;;;;;;5068663;28;20511;-65
2021/05/14 04:59:42;;;;;;;13.40;10.43;;;10.90;99.90;;;;;;5075381;28;20212;-64
2021/05/14 05:02:09;;;;;;;13.37;10.70;;;10.90;99.90;;;;;;5061992;28;20636;-63
2021/05/14 05:04:36;;;;;;;13.90;10.43;;;10.90;99.90;;;;;;5062669;28;20239;-65
2021/05/14 05:07:03;;;;;;;13.50;11.07;;;10.90;99.90;;;;;;5066568;28;20442;-66
2021/05/14 05:09:28;;;;;;;13.80;10.53;;;11.00;99.90;;;;;;5069271;28;20507;-65
2021/05/14 05:11:54;;;;;;;13.70;10.87;;;11.00;99.90;;;;;;5068749;28;20450;-64
2021/05/14 05:14:20;;;;;;;14.97;10.90;;;11.10;99.90;;;;;;5069141;28;20960;-65
2021/05/14 05:16:45;;;;;;;14.97;11.40;;;11.10;99.90;;;;;;5067509;28;20169;-64
2021/05/14 05:19:11;;;;;;;14.97;10.77;;;11.10;99.90;;;;;;5067773;28;20193;-64
2021/05/14 05:21:36;;;;;;;15.83;11.00;;;11.10;99.90;;;;;;5068235;28;20166;-64
2021/05/14 05:24:02;;;;;;;13.77;11.60;;;11.20;99.90;;;;;;5069088;28;20205;-64
2021/05/14 05:26:28;;;;;;;16.70;12.30;;;11.20;99.90;;;;;;5068309;28;20540;-64
2021/05/14 05:28:53;;;;;;;14.10;11.43;;;11.20;99.90;;;;;;5068175;28;20482;-64
2021/05/14 05:31:19;;;;;;;14.67;11.47;;;11.30;99.90;;;;;;5069106;28;20570;-64
2021/05/14 05:33:44;;;;;;;15.50;12.77;;;11.30;99.90;;;;;;5068264;28;20264;-64
2021/05/14 05:36:10;;;;;;;15.63;13.13;;;11.40;99.90;;;;;;5068478;28;20314;-62
2021/05/14 05:38:36;;;;;;;14.47;12.03;;;11.40;99.90;;;;;;5066967;28;20181;-64
2021/05/14 05:41:02;;;;;;;16.70;12.60;;;11.30;99.90;;;;;;5068996;28;20173;-63
2021/05/14 05:43:28;;;;;;;16.43;12.60;;;11.40;99.90;;;;;;5066505;28;20952;-63
2021/05/14 05:45:53;;;;;;;15.93;13.07;;;11.40;99.90;;;;;;5068629;28;20419;-63
2021/05/14 05:48:19;;;;;;;16.50;13.00;;;11.50;99.90;;;;;;5066883;28;20197;-62
2021/05/14 05:50:44;;;;;;;15.00;11.97;;;11.50;99.90;;;;;;5069057;28;20877;-62
2021/05/14 05:53:11;;;;;;;17.13;12.70;;;11.50;99.90;;;;;;5068213;28;20563;-67
2021/05/14 05:55:37;;;;;;;15.10;11.90;;;11.50;99.90;;;;;;5066149;28;20169;-63
2021/05/14 05:58:11;;;;;;;15.10;12.13;;;11.50;99.90;;;;;;5069021;28;20438;-62
2021/05/14 06:00:36;;;;;;;16.60;12.70;;;11.60;99.90;;;;;;5088967;28;20220;-62
2021/05/14 06:03:03;;;;;;;16.07;12.50;;;11.60;99.90;;;;;;5087353;28;20411;-62
2021/05/14 06:05:29;;;;;;;13.97;11.80;;;11.60;99.90;;;;;;5075956;28;20189;-64
2021/05/14 06:07:55;;;;;;;16.50;13.07;;;11.60;99.90;;;;;;5083859;28;20460;-62
2021/05/14 06:10:21;;;;;;;13.30;11.77;;;11.70;99.90;;;;;;5070565;28;21159;-62
2021/05/14 06:12:47;;;;;;;14.77;12.10;;;11.80;99.90;;;;;;5065946;28;20177;-62
2021/05/14 06:15:13;;;;;;;18.80;12.67;;;11.80;99.90;;;;;;5074887;28;20503;-63
2021/05/14 06:17:40;;;;;;;13.60;12.13;;;11.90;99.90;;;;;;5068426;28;20189;-61
2021/05/14 06:20:09;;;;;;;13.40;11.63;;;12.00;99.90;;;;;;5066104;28;20256;-62
2021/05/14 06:22:34;;;;;;;17.03;13.20;;;12.00;99.90;;;;;;5071595;28;20787;-63
2021/05/14 06:25:00;;;;;;;16.43;13.13;;;12.10;99.90;;;;;;5060503;28;20432;-62
2021/05/14 06:27:26;;;;;;;16.60;14.77;;;12.10;99.90;;;;;;5068306;28;20185;-62
2021/05/14 06:29:51;;;;;;;14.83;13.27;;;12.20;99.90;;;;;;5063176;28;20189;-62
2021/05/14 06:32:17;;;;;;;17.47;14.63;;;12.20;99.90;;;;;;5064613;28;20288;-63
2021/05/14 06:34:44;;;;;;;14.37;12.87;;;12.20;99.90;;;;;;5066068;28;20281;-63
2021/05/14 06:37:10;;;;;;;14.10;12.60;;;12.20;99.90;;;;;;5063074;28;20183;-62
2021/05/14 06:39:35;;;;;;;14.20;12.70;;;12.30;99.90;;;;;;5080211;28;20933;-63
2021/05/14 06:42:01;;;;;;;15.50;13.67;;;12.40;99.90;;;;;;5081175;28;20180;-62
2021/05/14 06:44:28;;;;;;;14.83;13.10;;;12.50;99.90;;;;;;5062071;28;20199;-63
2021/05/14 06:46:54;;;;;;;16.03;14.33;;;12.50;99.90;;;;;;5063576;28;20177;-63
2021/05/14 06:49:21;;;;;;;18.97;14.20;;;12.50;99.90;;;;;;5062348;28;20512;-63
2021/05/14 06:51:46;;;;;;;18.10;15.10;;;12.60;99.90;;;;;;5076476;28;20175;-63
2021/05/14 06:54:12;;;;;;;19.20;16.63;;;12.60;99.90;;;;;;5068518;28;20424;-63
2021/05/14 06:56:38;;;;;;;18.47;14.90;;;12.70;99.90;;;;;;5067283;28;20201;-62
2021/05/14 06:59:03;;;;;;;19.73;15.67;;;12.70;99.90;;;;;;5069531;28;20313;-60
2021/05/14 07:01:29;;;;;;;22.27;15.80;;;12.80;99.90;;;;;;5070586;28;20464;-62
2021/05/14 07:03:54;;;;;;;19.07;16.97;;;12.90;99.90;;;;;;5078801;28;20234;-63
2021/05/14 07:06:20;;;;;;;20.10;17.50;;;12.80;99.90;;;;;;5068964;28;20182;-63
2021/05/14 07:08:49;;;;;;;18.93;16.93;;;12.90;99.90;;;;;;5075695;28;20646;-63
2021/05/14 07:11:15;;;;;;;21.40;16.93;;;13.00;99.90;;;;;;5079564;28;20181;-65
2021/05/14 07:13:41;;;;;;;20.60;15.47;;;13.00;99.90;;;;;;5084759;28;20415;-64
2021/05/14 07:16:07;;;;;;;22.50;16.17;;;13.10;99.90;;;;;;5074709;28;20425;-64
2021/05/14 07:18:33;;;;;;;18.10;15.80;;;13.20;99.90;;;;;;5083857;28;20178;-64
2021/05/14 07:20:59;;;;;;;16.87;15.03;;;13.20;99.90;;;;;;5088907;28;20189;-65
2021/05/14 07:23:25;;;;;;;18.57;14.57;;;13.30;99.90;;;;;;5074566;28;20433;-66
2021/05/14 07:25:51;;;;;;;17.53;14.00;;;13.30;99.90;;;;;;5072085;28;20446;-65
2021/05/14 07:28:17;;;;;;;14.63;13.10;;;13.30;99.90;;;;;;5080273;28;20207;-65
2021/05/14 07:30:42;;;;;;;16.17;14.47;;;13.30;99.90;;;;;;5068837;28;20186;-66
2021/05/14 07:33:08;;;;;;;17.03;14.70;;;13.30;99.90;;;;;;5070339;28;20392;-65
2021/05/14 07:35:34;;;;;;;15.00;13.50;;;13.40;99.90;;;;;;5068364;28;20169;-66
2021/05/14 07:37:59;;;;;;;18.67;16.00;;;13.50;99.90;;;;;;5069166;28;20730;-65
2021/05/14 07:40:25;;;;;;;15.90;14.23;;;13.50;99.90;;;;;;5069443;28;20183;-66
2021/05/14 07:42:51;;;;;;;16.60;14.77;;;13.50;99.90;;;;;;5068874;28;20211;-66
2021/05/14 07:45:16;;;;;;;18.77;16.87;;;13.50;99.90;;;;;;5069676;28;20302;-65
2021/05/14 07:47:42;;;;;;;19.90;16.67;;;13.50;99.90;;;;;;5066636;28;20189;-66
2021/05/14 07:50:08;;;;;;;18.13;16.33;;;13.40;99.90;;;;;;5067434;28;20277;-65
2021/05/14 07:52:34;;;;;;;18.33;16.53;;;13.50;99.90;;;;;;5068854;28;20190;-64
2021/05/14 07:55:02;;;;;;;19.87;17.63;;;13.50;99.90;;;;;;5070059;28;20446;-66
2021/05/14 07:57:28;;;;;;;19.27;17.37;;;13.50;99.90;;;;;;5069232;28;20920;-65
2021/05/14 07:59:53;;;;;;;22.23;17.73;;;13.60;99.90;;;;;;5069425;28;20469;-65
2021/05/14 08:02:19;;;;;;;18.47;16.57;;;13.70;99.90;;;;;;5068649;28;20177;-65
2021/05/14 08:04:45;;;;;;;18.33;16.00;;;13.70;99.90;;;;;;5072539;28;20182;-65
2021/05/14 08:07:11;;;;;;;15.50;13.90;;;13.90;99.90;;;;;;5077527;28;20740;-63
2021/05/14 08:09:36;;;;;;;15.03;12.80;;;13.90;99.90;;;;;;5071171;28;20468;-65
2021/05/14 08:12:05;;;;;;;8.77;7.97;;;14.00;99.90;;;;;;5068441;28;20194;-65
2021/05/14 08:14:31;;;;;;;8.47;7.67;;;13.80;70.10;;;;;;5075576;28;20282;-62
2021/05/14 08:16:56;;;;;;;6.63;6.03;;;13.70;47.50;;;;;;5082949;28;20428;-64
2021/05/14 08:19:22;;;;;;;6.43;5.83;;;13.60;28.70;;;;;;5089078;28;20418;-66
2021/05/14 08:21:48;;;;;;;6.40;5.80;;;13.50;41.40;;;;;;5078806;28;20177;-65
2021/05/14 08:24:14;;;;;;;5.57;5.07;;;13.50;57.60;;;;;;5069009;28;20414;-66
2021/05/14 08:26:40;;;;;;;5.53;4.67;;;13.50;68.60;;;;;;5068467;28;20194;-65
2021/05/14 08:29:07;;;;;;;5.70;5.20;;;13.60;39.80;;;;;;5069018;28;20211;-63
2021/05/14 08:31:39;;;;;;;5.40;4.80;;;13.70;51.20;;;;;;5067791;28;20432;-65
2021/05/14 08:34:05;;;;;;;6.57;5.60;;;13.60;53.80;;;;;;5069032;28;20390;-63
2021/05/14 08:36:31;;;;;;;6.80;6.20;;;13.70;65.50;;;;;;5069064;28;20531;-65
2021/05/14 08:38:56;;;;;;;7.00;6.30;;;13.70;65.80;;;;;;5068307;28;20526;-64
2021/05/14 08:41:22;;;;;;;6.83;6.23;;;13.80;71.50;;;;;;5068063;28;20464;-64
2021/05/14 08:43:48;;;;;;;9.43;6.87;;;13.90;77.90;;;;;;5068891;28;20187;-65
2021/05/14 08:46:17;;;;;;;7.03;6.40;;;14.00;85.40;;;;;;5067624;28;20774;-65
2021/05/14 08:48:43;;;;;;;11.80;6.43;;;14.20;40.90;;;;;;5068764;28;20248;-65
2021/05/14 08:51:11;;;;;;;6.97;6.27;;;14.20;28.20;;;;;;5066952;28;20438;-66
2021/05/14 08:53:43;;;;;;;7.10;6.40;;;14.10;14.60;;;;;;5068757;28;20417;-65
2021/05/14 08:56:08;;;;;;;6.17;5.50;;;13.90;19.20;;;;;;5068630;28;20499;-65
2021/05/14 08:58:37;;;;;;;7.40;6.20;;;13.80;31.20;;;;;;5067037;28;20449;-65
2021/05/14 09:01:03;;;;;;;7.83;6.53;;;13.80;34.30;;;;;;5068536;28;20279;-63
2021/05/14 09:03:28;;;;;;;7.07;6.37;;;13.90;25.30;;;;;;5068583;28;20401;-63
2021/05/14 09:05:54;;;;;;;6.73;6.00;;;14.00;23.80;;;;;;5070162;28;20195;-65
2021/05/14 09:08:30;;;;;;;5.63;5.17;;;14.10;36.40;;;;;;5088040;28;20225;-65
2021/05/14 09:10:57;;;;;;;6.60;5.63;;;14.40;43.10;;;;;;5082967;28;20270;-65
2021/05/14 09:13:33;;;;;;;5.67;5.17;;;14.60;12.20;;;;;;5066878;28;20442;-65
2021/05/14 09:15:58;;;;;;;6.07;5.47;;;14.80;30.00;;;;;;5087244;28;20414;-65
2021/05/14 09:18:25;;;;;;;5.90;5.40;;;15.30;39.80;;;;;;5068038;28;20437;-64
2021/05/14 09:20:54;;;;;;;6.30;5.80;;;15.60;1.00;;;;;;5070698;28;20706;-65
2021/05/14 09:23:20;;;;;;;6.17;5.57;;;15.90;1.00;;;;;;5088312;28;20421;-64
2021/05/14 09:26:01;;;;;;;6.30;5.70;;;16.10;1.00;;;;;;5073600;28;20450;-66
2021/05/14 09:28:26;;;;;;;10.57;7.80;;;16.50;1.00;;;;;;5079651;28;20200;-63
2021/05/14 09:31:16;;;;;;;6.40;5.90;;;16.90;1.00;;;;;;5072294;28;20476;-63
2021/05/14 09:33:47;;;;;;;7.20;6.50;;;17.30;1.00;;;;;;5087336;28;20647;-64
2021/05/14 09:36:16;;;;;;;7.10;6.50;;;17.70;1.00;;;;;;5081265;28;20779;-64
2021/05/14 09:38:56;;;;;;;7.10;6.50;;;18.20;1.00;;;;;;5068103;28;20439;-64
2021/05/14 09:41:37;;;;;;;7.47;6.87;;;18.30;1.00;;;;;;5077836;28;20418;-64
2021/05/14 09:44:20;;;;;;;7.77;7.07;;;18.60;1.00;;;;;;5076609;28;20438;-65
2021/05/14 09:46:46;;;;;;;7.53;6.87;;;19.10;1.00;;;;;;5081159;28;20443;-64
2021/05/14 09:49:18;;;;;;;6.80;6.30;;;19.20;1.00;;;;;;5079225;28;20481;-64
2021/05/14 09:51:47;;;;;;;7.70;7.10;;;19.20;99.90;;;;;;5067528;28;21047;-64
2021/05/14 09:54:19;;;;;;;8.17;7.37;;;19.20;74.80;;;;;;5064045;28;20442;-63
2021/05/14 09:57:03;;;;;;;6.50;6.00;;;19.70;1.00;;;;;;5067040;28;20484;-64
2021/05/14 09:59:31;;;;;;;5.90;5.50;;;20.10;1.00;;;;;;5076675;28;20823;-64
2021/05/14 10:01:57;;;;;;;6.00;5.60;;;20.20;1.00;;;;;;5084150;28;20551;-65
2021/05/14 10:04:23;;;;;;;5.73;5.33;;;20.80;1.00;;;;;;5069897;28;20952;-65
2021/05/14 10:06:49;;;;;;;5.03;4.73;;;21.00;1.00;;;;;;5071767;28;20420;-64
2021/05/14 10:09:19;;;;;;;6.10;5.70;;;20.90;99.90;;;;;;5075503;28;20549;-64
2021/05/14 10:11:44;;;;;;;5.10;4.70;;;21.10;1.00;;;;;;5091929;28;20803;-65
2021/05/14 10:14:10;;;;;;;5.10;4.70;;;21.50;1.00;;;;;;5080202;28;20459;-65
2021/05/14 10:16:36;;;;;;;4.90;4.60;;;21.30;1.00;;;;;;5091397;28;20219;-65
2021/05/14 10:19:03;;;;;;;5.23;4.83;;;21.30;1.00;;;;;;5077754;28;20431;-64
2021/05/14 10:21:29;;;;;;;5.10;4.70;;;21.60;99.90;;;;;;5071317;28;20501;-63
2021/05/14 10:23:55;;;;;;;4.63;4.00;;;21.90;1.00;;;;;;5076902;28;20443;-64
2021/05/14 10:26:21;;;;;;;4.33;4.03;;;21.70;1.00;;;;;;5076616;28;20492;-64
2021/05/14 10:28:48;;;;;;;4.37;3.90;;;21.50;18.90;;;;;;5079799;28;20230;-64
2021/05/14 10:31:23;;;;;;;4.10;3.80;;;21.90;1.00;;;;;;5087401;28;20238;-64
2021/05/14 10:33:50;;;;;;;4.70;4.40;;;21.90;1.00;;;;;;5082350;28;20450;-65
2021/05/14 10:36:21;;;;;;;4.10;3.80;;;22.50;1.00;;;;;;5082551;28;20408;-65
2021/05/14 10:39:06;;;;;;;3.37;3.17;;;22.30;1.00;;;;;;5082757;28;20423;-66
2021/05/14 10:41:33;;;;;;;3.10;2.90;;;22.90;1.00;;;;;;5061395;28;20434;-66
2021/05/14 10:44:04;;;;;;;3.20;3.00;;;23.20;1.00;;;;;;5076213;28;20416;-64
2021/05/14 10:46:31;;;;;;;4.10;3.80;;;23.20;99.90;;;;;;5081937;28;20418;-67
2021/05/14 10:49:16;;;;;;;3.67;3.47;;;23.20;99.90;;;;;;5077335;28;20511;-66
2021/05/14 10:51:50;;;;;;;3.50;3.30;;;22.70;99.90;;;;;;5070717;28;21010;-67
2021/05/14 10:54:38;;;;;;;3.80;3.60;;;22.30;1.00;;;;;;5080962;28;20481;-66
2021/05/14 10:57:04;;;;;;;4.13;3.73;;;21.90;1.00;;;;;;5074453;28;20434;-66
2021/05/14 10:59:32;;;;;;;3.93;3.70;;;21.70;1.00;;;;;;5080814;28;20819;-67
2021/05/14 11:01:58;;;;;;;3.63;3.43;;;21.70;1.00;;;;;;5074336;28;20516;-66
2021/05/14 11:04:26;;;;;;;3.83;3.50;;;21.30;1.00;;;;;;5074008;28;20446;-64
2021/05/14 11:06:53;;;;;;;4.40;4.03;;;21.20;1.00;;;;;;5080547;28;20422;-66
2021/05/14 11:09:24;;;;;;;3.60;3.40;;;21.00;1.00;;;;;;5066410;28;21040;-66
2021/05/14 11:12:02;;;;;;;4.73;4.50;;;21.10;1.00;;;;;;5070520;28;20418;-64
2021/05/14 11:14:48;;;;;;;4.77;4.37;;;21.40;1.00;;;;;;5062627;28;20432;-66
2021/05/14 11:17:15;;;;;;;5.43;5.03;;;21.00;1.00;;;;;;5072368;28;20409;-65
2021/05/14 11:19:43;;;;;;;5.60;5.20;;;21.30;1.00;;;;;;5068730;28;20564;-66
2021/05/14 11:22:15;;;;;;;5.50;5.10;;;21.30;1.00;;;;;;5066588;28;20553;-68
2021/05/14 11:24:42;;;;;;;4.70;4.40;;;21.30;1.00;;;;;;5066301;28;20921;-68
2021/05/14 11:27:13;;;;;;;5.30;4.90;;;21.50;99.90;;;;;;5070835;28;20451;-65
2021/05/14 11:29:46;;;;;;;4.70;4.40;;;21.60;79.50;;;;;;5068507;28;21039;-67
2021/05/14 11:32:14;;;;;;;4.77;4.47;;;21.80;1.00;;;;;;5069641;28;20423;-66
2021/05/14 11:35:09;;;;;;;6.33;5.73;;;21.90;1.00;;;;;;5065472;28;20901;-66
2021/05/14 11:37:40;;;;;;;6.43;5.93;;;21.90;99.90;;;;;;5055373;28;20427;-67
2021/05/14 11:40:15;;;;;;;5.80;5.40;;;21.80;99.90;;;;;;5068094;28;20447;-67
2021/05/14 11:42:44;;;;;;;5.53;5.23;;;21.20;99.90;;;;;;5068205;28;21195;-66
2021/05/14 11:45:12;;;;;;;5.20;4.90;;;20.80;1.00;;;;;;5064908;28;20426;-65
2021/05/14 11:47:46;;;;;;;5.60;5.30;;;20.60;99.90;;;;;;5065281;28;20462;-67
2021/05/14 11:50:28;;;;;;;6.30;5.83;;;20.40;1.00;;;;;;5066589;28;20506;-67
2021/05/14 11:52:54;;;;;;;5.67;5.37;;;20.20;1.00;;;;;;5080333;28;20415;-67
2021/05/14 11:55:21;;;;;;;7.03;6.43;;;20.10;99.90;;;;;;5068417;28;20739;-67
2021/05/14 11:57:52;;;;;;;8.17;7.30;;;19.80;99.90;;;;;;5068657;28;20572;-67
2021/05/14 12:00:26;;;;;;;8.23;7.60;;;19.50;1.00;;;;;;5070941;28;20463;-66
2021/05/14 12:02:51;;;;;;;8.00;7.30;;;19.00;99.90;;;;;;5071112;28;20430;-67
2021/05/14 12:05:19;;;;;;;8.07;7.47;;;19.00;99.90;;;;;;5069729;28;20476;-66
2021/05/14 12:07:45;;;;;;;8.53;7.90;;;19.40;1.00;;;;;;5081130;28;20232;-66
2021/05/14 12:10:15;;;;;;;6.90;6.30;;;20.30;1.00;;;;;;5088642;28;20992;-67
2021/05/14 12:12:42;;;;;;;7.47;6.87;;;21.10;93.20;;;;;;5089408;28;20188;-67
2021/05/14 12:15:20;;;;;;;8.27;7.57;;;21.70;1.00;;;;;;5076769;28;20414;-67
2021/05/14 12:17:56;;;;;;;8.40;7.80;;;21.70;1.00;;;;;;5079611;28;20501;-67
2021/05/14 12:20:27;;;;;;;8.20;7.50;;;21.60;1.00;;;;;;5077624;28;20427;-64
2021/05/14 12:22:58;;;;;;;8.13;7.53;;;22.00;99.90;;;;;;5074816;28;20431;-63
2021/05/14 12:25:25;;;;;;;7.90;7.30;;;22.60;1.00;;;;;;5059848;28;20427;-62
2021/05/14 12:27:50;;;;;;;7.80;7.10;;;22.80;99.90;;;;;;5080196;28;20411;-63
2021/05/14 12:30:18;;;;;;;7.57;6.97;;;22.70;99.90;;;;;;5073766;28;20430;-63
2021/05/14 12:32:55;;;;;;;7.23;6.73;;;22.20;1.00;;;;;;5075762;28;20279;-64
2021/05/14 12:35:21;;;;;;;8.47;7.87;;;21.20;99.90;;;;;;5063772;28;20438;-63
2021/05/14 12:37:55;;;;;;;7.63;7.00;;;21.00;99.90;;;;;;5070907;28;20509;-63
2021/05/14 12:40:28;;;;;;;8.77;8.07;;;21.20;1.00;;;;;;5062540;28;20644;-64
2021/05/14 12:43:06;;;;;;;7.93;7.27;;;21.70;1.00;;;;;;5067837;28;20423;-63
2021/05/14 12:45:35;;;;;;;10.73;8.50;;;22.40;99.90;;;;;;5068623;28;20990;-65
2021/05/14 12:48:01;;;;;;;8.93;8.23;;;22.30;1.00;;;;;;5062813;28;20550;-63
2021/05/14 12:50:27;;;;;;;7.87;7.37;;;22.30;99.90;;;;;;5065683;28;20510;-64